createdAt,value
2022-10-18T00:00:02.469Z,17.22
2022-10-18T00:02:37.877Z,17.57
2022-10-18T00:05:11.503Z,17.33
2022-10-18T00:07:46.462Z,17.86
2022-10-18T00:20:34.467Z,17.23
2022-10-18T00:23:16.475Z,16.85
2022-10-18T00:25:49.602Z,17.33
2022-10-18T00:28:16.145Z,17.16
2022-10-18T00:30:56.493Z,17.80
2022-10-18T00:33:29.522Z,17.40
2022-10-18T00:46:18.466Z,17.30
2022-10-18T00:49:00.484Z,17.40
2022-10-18T00:51:40.874Z,17.46
2022-10-18T00:54:22.494Z,17.46
2022-10-18T00:56:55.930Z,17.17
2022-10-18T01:13:33.196Z,17.74
2022-10-18T01:16:19.182Z,17.18
2022-10-18T01:19:16.493Z,17.06
2022-10-18T01:21:56.870Z,17.55
2022-10-18T01:25:09.492Z,17.54
2022-10-18T01:27:51.843Z,17.48
2022-10-18T01:40:53.454Z,17.39
2022-10-18T01:43:36.471Z,17.53
2022-10-18T01:46:17.310Z,17.59
2022-10-18T01:48:58.508Z,17.24
2022-10-18T01:51:33.624Z,17.50
2022-10-18T02:06:32.473Z,17.27
2022-10-18T02:09:13.292Z,17.07
2022-10-18T02:11:59.503Z,17.70
2022-10-18T02:14:34.781Z,17.14
2022-10-18T02:17:15.576Z,16.61
2022-10-18T02:34:00.449Z,17.06
2022-10-18T02:36:48.507Z,17.25
2022-10-18T02:39:29.246Z,16.98
2022-10-18T02:42:12.495Z,16.92
2022-10-18T02:44:45.537Z,16.87
2022-10-18T02:47:12.150Z,17.05
2022-10-18T03:00:10.450Z,16.57
2022-10-18T03:02:50.484Z,17.33
2022-10-18T03:05:23.685Z,17.04
2022-10-18T03:07:50.228Z,17.24
2022-10-18T03:10:30.497Z,16.87
2022-10-18T03:13:11.914Z,17.12
2022-10-18T03:26:46.452Z,16.77
2022-10-18T03:29:26.510Z,17.41
2022-10-18T03:31:59.543Z,17.05
2022-10-18T03:34:47.472Z,16.67
2022-10-18T03:37:20.559Z,16.93
2022-10-18T03:39:47.160Z,16.80
2022-10-18T03:42:29.739Z,17.44
2022-10-18T03:52:24.455Z,17.12
2022-10-18T03:55:04.485Z,17.66
2022-10-18T03:57:39.728Z,17.33
2022-10-18T04:00:15.457Z,17.53
2022-10-18T04:02:52.002Z,17.38
2022-10-18T04:05:35.477Z,17.14
2022-10-18T04:08:08.569Z,17.17
2022-10-18T04:20:57.461Z,17.42
2022-10-18T04:23:38.979Z,17.45
2022-10-18T04:26:12.522Z,17.40
2022-10-18T04:28:45.568Z,17.61
2022-10-18T04:31:18.655Z,17.53
2022-10-18T04:33:52.336Z,18.16
2022-10-18T04:46:48.489Z,17.53
2022-10-18T04:49:28.485Z,17.93
2022-10-18T04:52:01.497Z,17.08
2022-10-18T04:54:28.711Z,17.53
2022-10-18T04:57:08.493Z,17.87
2022-10-18T04:59:41.506Z,17.60
2022-10-18T05:02:16.466Z,17.87
2022-10-18T05:12:46.437Z,17.38
2022-10-18T05:15:26.470Z,17.65
2022-10-18T05:18:01.470Z,17.01
2022-10-18T05:20:34.473Z,17.48
2022-10-18T05:23:07.617Z,17.55
2022-10-18T05:25:34.164Z,17.39
2022-10-18T05:28:38.229Z,17.81
2022-10-18T05:41:46.469Z,16.98
2022-10-18T05:44:19.855Z,17.23
2022-10-18T05:46:46.401Z,17.19
2022-10-18T05:49:26.478Z,16.96
2022-10-18T05:51:59.673Z,17.00
2022-10-18T06:08:13.473Z,16.67
2022-10-18T06:10:46.528Z,17.06
2022-10-18T06:13:13.070Z,16.67
2022-10-18T06:15:53.561Z,16.60
2022-10-18T06:18:26.496Z,16.70
2022-10-18T06:21:03.478Z,16.97
2022-10-18T06:23:38.447Z,16.71
2022-10-18T06:33:07.026Z,16.21
2022-10-18T06:35:40.623Z,16.47
2022-10-18T06:38:13.488Z,16.81
2022-10-18T06:40:49.867Z,16.34
2022-10-18T06:43:23.460Z,16.57
2022-10-18T06:45:56.535Z,16.90
2022-10-18T06:48:30.469Z,17.09
2022-10-18T07:01:42.516Z,16.90
2022-10-18T07:04:15.529Z,16.77
2022-10-18T07:06:42.094Z,16.67
2022-10-18T07:09:22.476Z,16.65
2022-10-18T07:11:55.610Z,16.76
2022-10-18T07:28:10.450Z,16.58
2022-10-18T07:30:43.505Z,17.03
2022-10-18T07:33:18.981Z,16.30
2022-10-18T07:35:52.585Z,17.00
2022-10-18T07:38:25.468Z,16.57
2022-10-18T07:41:00.241Z,15.83
2022-10-18T07:43:36.498Z,16.00
2022-10-18T07:53:21.448Z,16.51
2022-10-18T07:56:07.173Z,16.18
2022-10-18T07:58:46.596Z,16.23
2022-10-18T08:01:28.483Z,16.27
2022-10-18T08:04:07.011Z,16.15
2022-10-18T08:06:47.476Z,15.85
2022-10-18T08:20:12.306Z,16.49
2022-10-18T08:23:00.597Z,16.06
2022-10-18T08:28:27.670Z,15.84
2022-10-18T08:31:00.465Z,16.01
2022-10-18T08:33:34.198Z,16.65
2022-10-18T08:46:55.430Z,16.29
2022-10-18T08:49:47.628Z,16.56
2022-10-18T08:52:33.859Z,16.90
2022-10-18T08:55:24.484Z,16.23
2022-10-18T08:57:57.792Z,16.84
2022-10-18T09:00:37.465Z,16.60
2022-10-18T09:03:36.818Z,16.03
2022-10-18T09:13:43.468Z,16.29
2022-10-18T09:16:26.543Z,15.80
2022-10-18T09:19:25.457Z,16.31
2022-10-18T09:22:11.909Z,16.73
2022-10-18T09:25:07.480Z,16.31
2022-10-18T09:27:52.794Z,16.19
2022-10-18T09:41:00.446Z,16.18
2022-10-18T09:44:00.465Z,15.99
2022-10-18T09:46:41.103Z,16.17
2022-10-18T09:49:28.459Z,16.50
2022-10-18T09:52:10.779Z,16.29
2022-10-18T10:08:39.464Z,16.45
2022-10-18T10:11:36.276Z,16.68
2022-10-18T10:14:21.499Z,16.52
2022-10-18T10:16:58.709Z,16.60
2022-10-18T10:19:43.467Z,16.46
2022-10-18T10:22:32.956Z,16.22
2022-10-18T10:35:55.817Z,16.81
2022-10-18T10:38:39.118Z,16.83
2022-10-18T10:41:21.607Z,17.20
2022-10-18T10:44:01.479Z,17.79
2022-10-18T10:46:36.358Z,17.60
2022-10-18T10:49:38.641Z,18.14
2022-10-18T11:02:59.233Z,18.70
2022-10-18T11:05:45.345Z,18.97
2022-10-18T11:08:32.072Z,19.24
2022-10-18T11:11:22.218Z,20.06
2022-10-18T11:14:25.270Z,19.69
2022-10-18T11:28:02.481Z,20.03
2022-10-18T11:30:51.552Z,20.62
2022-10-18T11:34:08.143Z,20.21
2022-10-18T11:37:15.576Z,19.91
2022-10-18T11:40:18.965Z,19.39
2022-10-18T11:43:07.004Z,19.97
2022-10-18T11:56:16.426Z,19.75
2022-10-18T11:59:24.496Z,20.85
2022-10-18T12:02:40.606Z,20.88
2022-10-18T12:05:24.079Z,20.42
2022-10-18T12:08:05.967Z,20.54
2022-10-18T12:21:05.424Z,21.73
2022-10-18T12:23:53.481Z,21.22
2022-10-18T12:26:32.148Z,20.55
2022-10-18T12:29:29.492Z,20.42
2022-10-18T12:32:09.959Z,20.84
2022-10-18T12:50:27.895Z,18.93
2022-10-18T12:53:26.456Z,18.99
2022-10-18T12:56:39.174Z,18.55
2022-10-18T12:59:56.481Z,18.72
2022-10-18T13:02:34.844Z,17.68
2022-10-18T13:15:48.446Z,15.34
2022-10-18T13:18:42.466Z,15.01
2022-10-18T13:21:26.134Z,13.66
2022-10-18T13:24:27.453Z,13.44
2022-10-18T13:27:36.767Z,12.60
2022-10-18T13:41:10.519Z,9.70
2022-10-18T13:44:23.987Z,8.61
2022-10-18T13:47:37.214Z,8.45
2022-10-18T13:50:32.456Z,7.46
2022-10-18T13:53:50.470Z,6.83
2022-10-18T14:10:33.308Z,3.79
2022-10-18T14:13:24.086Z,3.18
2022-10-18T14:16:16.463Z,3.35
2022-10-18T14:18:57.366Z,3.05
2022-10-18T14:21:44.469Z,2.95
2022-10-18T14:35:27.574Z,2.54
2022-10-18T14:37:55.925Z,2.31
2022-10-18T14:40:40.492Z,2.41
2022-10-18T14:43:18.776Z,2.19
2022-10-18T14:45:59.525Z,2.02
2022-10-18T14:48:32.537Z,1.87
2022-10-18T15:01:27.509Z,2.60
2022-10-18T15:04:17.445Z,2.77
2022-10-18T15:06:50.485Z,2.88
2022-10-18T15:09:29.477Z,3.08
2022-10-18T15:12:06.145Z,3.30
2022-10-18T15:14:48.453Z,3.29
2022-10-18T15:17:26.913Z,3.24
2022-10-18T15:30:30.420Z,3.32
2022-10-18T15:33:14.481Z,3.60
2022-10-18T15:35:48.043Z,3.39
2022-10-18T15:38:30.474Z,3.38
2022-10-18T15:41:37.063Z,3.25
2022-10-18T15:54:54.430Z,3.22
2022-10-18T15:57:37.759Z,3.03
2022-10-18T16:00:22.319Z,3.44
2022-10-18T16:03:02.453Z,3.62
2022-10-18T16:05:37.362Z,3.60
2022-10-18T16:08:11.459Z,3.80
2022-10-18T16:21:40.761Z,4.77
2022-10-18T16:24:13.522Z,4.94
2022-10-18T16:26:40.393Z,5.13
2022-10-18T16:29:25.447Z,4.96
2022-10-18T16:31:59.305Z,5.22
2022-10-18T16:34:33.458Z,5.23
2022-10-18T16:37:08.969Z,5.59
2022-10-18T16:49:56.470Z,5.41
2022-10-18T16:52:38.761Z,5.81
2022-10-18T16:55:11.957Z,5.59
2022-10-18T16:57:45.463Z,5.74
2022-10-18T17:00:21.495Z,5.34
2022-10-18T17:02:56.472Z,5.36
2022-10-18T17:16:10.894Z,5.48
2022-10-18T17:18:43.522Z,5.34
2022-10-18T17:21:10.083Z,5.08
2022-10-18T17:23:50.498Z,4.97
2022-10-18T17:26:28.830Z,4.96
2022-10-18T17:29:12.535Z,4.57
2022-10-18T17:42:23.475Z,3.96
2022-10-18T17:44:57.794Z,4.24
2022-10-18T17:47:31.748Z,4.46
2022-10-18T17:50:06.103Z,4.17
2022-10-18T17:52:40.734Z,3.99
2022-10-18T17:55:15.109Z,4.12
2022-10-18T17:57:50.498Z,4.09
2022-10-18T18:11:00.450Z,3.99
2022-10-18T18:13:28.928Z,4.26
2022-10-18T18:16:20.458Z,4.40
2022-10-18T18:18:58.420Z,4.46
2022-10-18T18:21:38.461Z,4.55
2022-10-18T18:24:12.328Z,4.39
2022-10-18T18:37:03.425Z,4.53
2022-10-18T18:39:43.461Z,4.24
2022-10-18T18:42:16.502Z,4.58
2022-10-18T18:44:43.062Z,4.54
2022-10-18T18:47:23.672Z,4.45
2022-10-18T19:04:02.422Z,4.10
2022-10-18T19:06:45.491Z,3.92
2022-10-18T19:09:18.621Z,3.84
2022-10-18T19:11:54.446Z,3.79
2022-10-18T19:14:27.489Z,3.91
2022-10-18T19:17:02.453Z,3.81
2022-10-18T19:30:17.448Z,4.03
2022-10-18T19:32:50.521Z,4.21
2022-10-18T19:35:17.090Z,3.89
2022-10-18T19:37:57.457Z,4.39
2022-10-18T19:40:30.497Z,4.37
2022-10-18T19:42:57.042Z,3.92
2022-10-18T19:55:53.421Z,4.25
2022-10-18T19:58:34.701Z,3.84
2022-10-18T20:01:07.611Z,3.91
2022-10-18T20:03:34.294Z,3.79
2022-10-18T20:06:14.458Z,3.72
2022-10-18T20:08:48.014Z,3.66
2022-10-18T20:22:21.418Z,4.06
2022-10-18T20:25:03.460Z,3.87
2022-10-18T20:27:36.589Z,4.12
2022-10-18T20:30:11.396Z,4.06
2022-10-18T20:32:44.641Z,4.16
2022-10-18T20:35:17.455Z,4.09
2022-10-18T20:37:50.645Z,4.62
2022-10-18T20:50:39.430Z,5.31
2022-10-18T20:53:19.466Z,5.87
2022-10-18T20:55:52.519Z,5.47
2022-10-18T20:58:19.067Z,5.98
2022-10-18T21:01:00.745Z,6.28
2022-10-18T21:03:37.129Z,6.67
2022-10-18T21:16:34.428Z,7.21
2022-10-18T21:19:18.468Z,7.12
2022-10-18T21:21:54.597Z,7.15
2022-10-18T21:24:30.456Z,7.02
2022-10-18T21:27:03.569Z,7.22
2022-10-18T21:29:30.104Z,7.28
2022-10-18T21:42:43.424Z,7.38
2022-10-18T21:45:23.446Z,7.72
2022-10-18T21:47:56.815Z,7.65
2022-10-18T21:50:30.478Z,7.17
2022-10-18T21:53:03.541Z,7.66
2022-10-18T21:55:30.133Z,8.12
2022-10-18T21:58:12.470Z,8.21
2022-10-18T22:11:23.444Z,8.69
2022-10-18T22:13:58.882Z,8.83
2022-10-18T22:16:32.452Z,8.57
2022-10-18T22:19:06.894Z,8.85
2022-10-18T22:21:41.484Z,9.41
2022-10-18T22:24:14.873Z,10.05
2022-10-18T22:37:04.422Z,11.29
2022-10-18T22:39:44.434Z,11.82
2022-10-18T22:42:17.606Z,11.52
2022-10-18T22:44:44.150Z,12.39
2022-10-18T22:47:24.421Z,12.48
2022-10-18T23:04:02.413Z,13.39
2022-10-18T23:06:43.121Z,12.25
2022-10-18T23:09:16.518Z,12.89
2022-10-18T23:11:49.441Z,12.49
2022-10-18T23:14:22.560Z,12.51
2022-10-18T23:16:49.097Z,12.08
2022-10-18T23:29:43.411Z,12.61
2022-10-18T23:32:23.426Z,12.49
2022-10-18T23:34:58.714Z,11.99
2022-10-18T23:37:31.721Z,11.82
2022-10-18T23:40:08.236Z,11.72
2022-10-18T23:42:41.455Z,11.87
2022-10-18T23:56:28.449Z,12.18
2022-10-18T23:59:01.489Z,11.59
